sensor_id;sensor_type;location;lat;lon;timestamp;P1;durP1;ratioP1;P2;durP2;ratioP2
42144;SDS011;27813;43.516;11.890;2023-04-24T04:37:40;4.78;;;3.83;;
42144;SDS011;27813;43.516;11.890;2023-04-24T04:51:42;5.63;;;3.72;;
42144;SDS011;27813;43.516;11.890;2023-04-24T04:56:06;9.00;;;4.25;;
42144;SDS011;27813;43.516;11.890;2023-04-24T05:00:33;6.43;;;4.72;;
42144;SDS011;27813;43.516;11.890;2023-04-24T05:09:30;6.55;;;4.20;;
42144;SDS011;27813;43.516;11.890;2023-04-24T05:13:54;9.63;;;4.13;;
42144;SDS011;27813;43.516;11.890;2023-04-24T05:18:30;8.25;;;4.68;;
42144;SDS011;27813;43.516;11.890;2023-04-24T05:22:36;11.98;;;4.50;;
42144;SDS011;27813;43.516;11.890;2023-04-24T05:26:45;5.85;;;3.42;;
42144;SDS011;27813;43.516;11.890;2023-04-24T05:30:58;7.20;;;4.03;;
42144;SDS011;27813;43.516;11.890;2023-04-24T05:35:06;8.35;;;4.20;;
42144;SDS011;27813;43.516;11.890;2023-04-24T05:39:14;7.32;;;3.80;;
42144;SDS011;27813;43.516;11.890;2023-04-24T05:43:21;7.72;;;3.75;;
42144;SDS011;27813;43.516;11.890;2023-04-24T05:47:39;9.15;;;3.83;;
42144;SDS011;27813;43.516;11.890;2023-04-24T05:52:16;6.18;;;4.05;;
42144;SDS011;27813;43.516;11.890;2023-04-24T05:56:58;7.88;;;3.83;;
42144;SDS011;27813;43.516;11.890;2023-04-24T06:02:02;11.52;;;5.38;;
42144;SDS011;27813;43.516;11.890;2023-04-24T06:34:22;9.63;;;4.10;;
42144;SDS011;27813;43.516;11.890;2023-04-24T12:26:45;5.22;;;1.30;;
42144;SDS011;27813;43.516;11.890;2023-04-24T12:30:50;6.22;;;1.58;;
42144;SDS011;27813;43.516;11.890;2023-04-24T12:34:55;3.50;;;1.45;;
42144;SDS011;27813;43.516;11.890;2023-04-24T12:39:00;5.47;;;1.20;;
42144;SDS011;27813;43.516;11.890;2023-04-24T12:43:17;5.75;;;1.42;;
42144;SDS011;27813;43.516;11.890;2023-04-24T12:47:23;5.50;;;1.05;;
42144;SDS011;27813;43.516;11.890;2023-04-24T12:51:28;5.05;;;1.38;;
42144;SDS011;27813;43.516;11.890;2023-04-24T12:55:32;3.72;;;1.30;;
42144;SDS011;27813;43.516;11.890;2023-04-24T12:59:37;5.65;;;2.40;;
42144;SDS011;27813;43.516;11.890;2023-04-24T13:03:42;8.73;;;2.33;;
42144;SDS011;27813;43.516;11.890;2023-04-24T13:07:47;17.15;;;6.30;;
42144;SDS011;27813;43.516;11.890;2023-04-24T13:11:51;5.22;;;1.45;;
42144;SDS011;27813;43.516;11.890;2023-04-24T13:15:56;6.28;;;1.83;;
42144;SDS011;27813;43.516;11.890;2023-04-24T13:20:00;7.32;;;1.40;;
42144;SDS011;27813;43.516;11.890;2023-04-24T13:24:06;4.45;;;1.70;;
42144;SDS011;27813;43.516;11.890;2023-04-24T13:28:11;7.05;;;1.83;;
42144;SDS011;27813;43.516;11.890;2023-04-24T13:32:17;3.65;;;1.58;;
42144;SDS011;27813;43.516;11.890;2023-04-24T13:36:22;5.90;;;1.40;;
42144;SDS011;27813;43.516;11.890;2023-04-24T13:40:27;5.25;;;1.55;;
42144;SDS011;27813;43.516;11.890;2023-04-24T13:44:32;5.28;;;1.58;;
42144;SDS011;27813;43.516;11.890;2023-04-24T13:48:39;7.05;;;1.55;;
42144;SDS011;27813;43.516;11.890;2023-04-24T13:52:49;5.55;;;1.55;;
42144;SDS011;27813;43.516;11.890;2023-04-24T13:56:53;5.28;;;1.58;;
42144;SDS011;27813;43.516;11.890;2023-04-24T14:01:00;6.10;;;1.77;;
42144;SDS011;27813;43.516;11.890;2023-04-24T14:05:04;3.38;;;1.20;;
42144;SDS011;27813;43.516;11.890;2023-04-24T14:09:09;4.63;;;1.58;;
42144;SDS011;27813;43.516;11.890;2023-04-24T14:13:14;7.70;;;1.92;;
42144;SDS011;27813;43.516;11.890;2023-04-24T14:17:18;5.28;;;1.33;;
42144;SDS011;27813;43.516;11.890;2023-04-24T14:21:23;2.80;;;1.33;;
42144;SDS011;27813;43.516;11.890;2023-04-24T14:25:27;7.68;;;2.30;;
42144;SDS011;27813;43.516;11.890;2023-04-24T14:29:32;4.00;;;1.17;;
42144;SDS011;27813;43.516;11.890;2023-04-24T14:33:37;5.05;;;1.88;;
42144;SDS011;27813;43.516;11.890;2023-04-24T14:37:42;3.05;;;1.40;;
42144;SDS011;27813;43.516;11.890;2023-04-24T14:41:46;3.40;;;1.30;;
42144;SDS011;27813;43.516;11.890;2023-04-24T14:45:51;3.08;;;1.15;;
42144;SDS011;27813;43.516;11.890;2023-04-24T14:49:55;4.70;;;1.58;;
42144;SDS011;27813;43.516;11.890;2023-04-24T14:53:59;6.10;;;1.60;;
42144;SDS011;27813;43.516;11.890;2023-04-24T14:58:04;4.25;;;1.50;;
42144;SDS011;27813;43.516;11.890;2023-04-24T15:02:09;6.07;;;1.35;;
42144;SDS011;27813;43.516;11.890;2023-04-24T15:06:19;4.78;;;1.42;;
42144;SDS011;27813;43.516;11.890;2023-04-24T15:10:24;4.45;;;1.20;;
42144;SDS011;27813;43.516;11.890;2023-04-24T15:14:28;6.82;;;1.40;;
42144;SDS011;27813;43.516;11.890;2023-04-24T15:18:33;6.75;;;1.58;;
42144;SDS011;27813;43.516;11.890;2023-04-24T15:22:38;6.63;;;1.95;;
42144;SDS011;27813;43.516;11.890;2023-04-24T15:26:42;5.45;;;1.40;;
42144;SDS011;27813;43.516;11.890;2023-04-24T15:30:46;4.78;;;1.55;;
42144;SDS011;27813;43.516;11.890;2023-04-24T15:34:51;3.20;;;1.50;;
42144;SDS011;27813;43.516;11.890;2023-04-24T15:39:09;5.75;;;1.75;;
42144;SDS011;27813;43.516;11.890;2023-04-24T15:43:14;5.55;;;1.90;;
42144;SDS011;27813;43.516;11.890;2023-04-24T15:47:20;3.63;;;1.10;;
42144;SDS011;27813;43.516;11.890;2023-04-24T15:51:24;3.05;;;1.10;;
42144;SDS011;27813;43.516;11.890;2023-04-24T15:55:28;3.00;;;1.20;;
42144;SDS011;27813;43.516;11.890;2023-04-24T15:59:33;2.72;;;0.88;;
42144;SDS011;27813;43.516;11.890;2023-04-24T16:03:37;2.67;;;0.85;;
42144;SDS011;27813;43.516;11.890;2023-04-24T16:07:42;3.17;;;0.85;;
42144;SDS011;27813;43.516;11.890;2023-04-24T16:11:46;3.78;;;1.23;;
42144;SDS011;27813;43.516;11.890;2023-04-24T16:15:50;2.85;;;1.02;;
42144;SDS011;27813;43.516;11.890;2023-04-24T16:19:55;4.80;;;1.45;;
42144;SDS011;27813;43.516;11.890;2023-04-24T16:23:59;3.08;;;1.35;;
42144;SDS011;27813;43.516;11.890;2023-04-24T16:28:04;6.40;;;1.45;;
42144;SDS011;27813;43.516;11.890;2023-04-24T16:32:09;5.10;;;1.30;;
42144;SDS011;27813;43.516;11.890;2023-04-24T16:36:14;5.18;;;1.50;;
42144;SDS011;27813;43.516;11.890;2023-04-24T16:40:18;4.97;;;1.00;;
42144;SDS011;27813;43.516;11.890;2023-04-24T16:44:26;2.88;;;1.13;;
42144;SDS011;27813;43.516;11.890;2023-04-24T16:53:04;3.58;;;1.02;;
42144;SDS011;27813;43.516;11.890;2023-04-24T16:57:13;2.20;;;1.00;;
42144;SDS011;27813;43.516;11.890;2023-04-24T17:01:20;2.25;;;1.00;;
42144;SDS011;27813;43.516;11.890;2023-04-24T17:05:25;5.25;;;1.35;;
42144;SDS011;27813;43.516;11.890;2023-04-24T17:09:58;3.97;;;1.70;;
42144;SDS011;27813;43.516;11.890;2023-04-24T17:14:17;4.43;;;1.60;;
42144;SDS011;27813;43.516;11.890;2023-04-24T17:23:12;4.85;;;1.80;;
42144;SDS011;27813;43.516;11.890;2023-04-24T17:27:22;3.17;;;1.15;;
42144;SDS011;27813;43.516;11.890;2023-04-24T17:31:28;2.75;;;1.00;;
42144;SDS011;27813;43.516;11.890;2023-04-24T17:35:34;3.35;;;1.33;;
42144;SDS011;27813;43.516;11.890;2023-04-24T17:39:40;3.33;;;1.30;;
42144;SDS011;27813;43.516;11.890;2023-04-24T17:43:44;4.72;;;1.60;;
42144;SDS011;27813;43.516;11.890;2023-04-24T17:47:50;3.63;;;1.45;;
42144;SDS011;27813;43.516;11.890;2023-04-24T17:51:54;4.53;;;1.20;;
42144;SDS011;27813;43.516;11.890;2023-04-24T17:55:59;3.40;;;1.35;;
42144;SDS011;27813;43.516;11.890;2023-04-24T18:00:05;4.40;;;1.30;;
42144;SDS011;27813;43.516;11.890;2023-04-24T18:04:11;7.20;;;1.40;;
42144;SDS011;27813;43.516;11.890;2023-04-24T18:08:15;6.32;;;1.73;;
42144;SDS011;27813;43.516;11.890;2023-04-24T18:12:19;5.50;;;1.73;;
42144;SDS011;27813;43.516;11.890;2023-04-24T18:16:23;3.78;;;1.48;;
42144;SDS011;27813;43.516;11.890;2023-04-24T18:24:31;3.20;;;1.50;;
42144;SDS011;27813;43.516;11.890;2023-04-24T18:32:40;6.47;;;1.70;;
42144;SDS011;27813;43.516;11.890;2023-04-24T18:40:48;5.17;;;1.30;;
42144;SDS011;27813;43.516;11.890;2023-04-24T18:44:55;3.25;;;1.33;;
42144;SDS011;27813;43.516;11.890;2023-04-24T18:49:06;5.53;;;1.77;;
42144;SDS011;27813;43.516;11.890;2023-04-24T18:53:10;2.67;;;1.42;;
42144;SDS011;27813;43.516;11.890;2023-04-24T18:57:29;7.05;;;1.63;;
42144;SDS011;27813;43.516;11.890;2023-04-24T19:01:38;6.00;;;1.70;;
42144;SDS011;27813;43.516;11.890;2023-04-24T19:05:48;5.68;;;1.50;;
42144;SDS011;27813;43.516;11.890;2023-04-24T19:09:52;7.20;;;1.90;;
42144;SDS011;27813;43.516;11.890;2023-04-24T19:13:59;5.90;;;1.67;;
42144;SDS011;27813;43.516;11.890;2023-04-24T19:18:10;4.95;;;1.70;;
42144;SDS011;27813;43.516;11.890;2023-04-24T19:22:14;7.55;;;1.80;;
42144;SDS011;27813;43.516;11.890;2023-04-24T19:26:21;6.20;;;2.08;;
42144;SDS011;27813;43.516;11.890;2023-04-24T19:30:28;9.50;;;2.05;;
42144;SDS011;27813;43.516;11.890;2023-04-24T19:34:34;6.70;;;1.77;;
42144;SDS011;27813;43.516;11.890;2023-04-24T19:38:46;7.78;;;2.38;;
42144;SDS011;27813;43.516;11.890;2023-04-24T19:42:54;8.80;;;2.05;;
42144;SDS011;27813;43.516;11.890;2023-04-24T19:51:02;7.60;;;2.17;;
42144;SDS011;27813;43.516;11.890;2023-04-24T19:55:06;5.35;;;2.10;;
42144;SDS011;27813;43.516;11.890;2023-04-24T19:59:11;5.07;;;2.20;;
42144;SDS011;27813;43.516;11.890;2023-04-24T20:03:16;4.53;;;1.77;;
42144;SDS011;27813;43.516;11.890;2023-04-24T20:07:35;7.63;;;2.00;;
42144;SDS011;27813;43.516;11.890;2023-04-24T20:11:39;8.68;;;2.50;;
42144;SDS011;27813;43.516;11.890;2023-04-24T20:15:43;5.55;;;1.73;;
42144;SDS011;27813;43.516;11.890;2023-04-24T20:19:48;7.90;;;2.53;;
42144;SDS011;27813;43.516;11.890;2023-04-24T20:23:52;5.30;;;1.63;;
42144;SDS011;27813;43.516;11.890;2023-04-24T20:27:56;8.07;;;1.85;;
42144;SDS011;27813;43.516;11.890;2023-04-24T20:32:01;8.93;;;2.90;;
42144;SDS011;27813;43.516;11.890;2023-04-24T20:36:06;12.50;;;2.17;;
42144;SDS011;27813;43.516;11.890;2023-04-24T20:40:12;9.00;;;1.70;;
42144;SDS011;27813;43.516;11.890;2023-04-24T20:44:18;9.45;;;1.73;;
42144;SDS011;27813;43.516;11.890;2023-04-24T20:48:23;8.10;;;2.00;;
42144;SDS011;27813;43.516;11.890;2023-04-24T20:52:30;7.43;;;1.92;;
42144;SDS011;27813;43.516;11.890;2023-04-24T20:56:35;9.05;;;2.25;;
42144;SDS011;27813;43.516;11.890;2023-04-24T21:04:43;6.50;;;2.23;;
42144;SDS011;27813;43.516;11.890;2023-04-24T21:08:48;7.43;;;1.58;;
42144;SDS011;27813;43.516;11.890;2023-04-24T21:12:52;9.02;;;2.03;;
42144;SDS011;27813;43.516;11.890;2023-04-24T21:16:57;6.15;;;1.50;;
42144;SDS011;27813;43.516;11.890;2023-04-24T21:21:02;7.50;;;1.58;;
42144;SDS011;27813;43.516;11.890;2023-04-24T21:29:11;9.03;;;1.50;;
42144;SDS011;27813;43.516;11.890;2023-04-24T21:33:16;10.65;;;2.50;;
42144;SDS011;27813;43.516;11.890;2023-04-24T21:37:22;7.35;;;1.77;;
42144;SDS011;27813;43.516;11.890;2023-04-24T21:41:27;9.18;;;2.25;;
42144;SDS011;27813;43.516;11.890;2023-04-24T21:50:38;10.43;;;1.67;;
42144;SDS011;27813;43.516;11.890;2023-04-24T21:55:15;10.73;;;1.80;;
42144;SDS011;27813;43.516;11.890;2023-04-24T22:00:13;6.78;;;1.77;;
42144;SDS011;27813;43.516;11.890;2023-04-24T22:04:26;7.90;;;2.08;;
42144;SDS011;27813;43.516;11.890;2023-04-24T22:08:38;8.93;;;2.53;;
42144;SDS011;27813;43.516;11.890;2023-04-24T22:12:53;7.40;;;2.30;;
42144;SDS011;27813;43.516;11.890;2023-04-24T22:17:20;9.35;;;2.35;;
42144;SDS011;27813;43.516;11.890;2023-04-24T22:22:17;10.88;;;2.55;;
42144;SDS011;27813;43.516;11.890;2023-04-24T22:26:32;7.63;;;2.20;;
42144;SDS011;27813;43.516;11.890;2023-04-24T22:30:42;11.93;;;1.92;;
42144;SDS011;27813;43.516;11.890;2023-04-24T22:34:47;12.25;;;1.95;;
42144;SDS011;27813;43.516;11.890;2023-04-24T22:38:55;8.60;;;1.77;;
42144;SDS011;27813;43.516;11.890;2023-04-24T22:43:06;11.05;;;2.58;;
42144;SDS011;27813;43.516;11.890;2023-04-24T22:47:11;5.22;;;1.80;;
42144;SDS011;27813;43.516;11.890;2023-04-24T22:51:19;11.05;;;1.58;;
42144;SDS011;27813;43.516;11.890;2023-04-24T22:55:30;16.42;;;1.80;;
42144;SDS011;27813;43.516;11.890;2023-04-24T22:59:43;12.20;;;2.15;;
42144;SDS011;27813;43.516;11.890;2023-04-24T23:03:48;12.93;;;2.58;;
42144;SDS011;27813;43.516;11.890;2023-04-24T23:08:02;6.50;;;2.25;;
42144;SDS011;27813;43.516;11.890;2023-04-24T23:12:08;5.22;;;2.10;;
42144;SDS011;27813;43.516;11.890;2023-04-24T23:16:16;8.73;;;2.28;;
42144;SDS011;27813;43.516;11.890;2023-04-24T23:20:21;7.15;;;1.90;;
42144;SDS011;27813;43.516;11.890;2023-04-24T23:24:26;8.73;;;1.95;;
42144;SDS011;27813;43.516;11.890;2023-04-24T23:28:34;7.75;;;2.65;;
